Time,TemperatureF,DewpointF,PressureIn,WindDirection,WindDirectionDegrees,WindSpeedMPH,WindSpeedGustMPH,Humidity,HourlyPrecipIn,Conditions,Clouds,dailyrainin,SoftwareType,DateUTC
2013-07-11 00:01:00,69.9,69.6,28.19,North,360,1.0,7.0,99,0.00,,,0.00,Weather View 32 v70,2013-07-11 04:01:00,
2013-07-11 00:02:00,69.9,69.6,28.19,North,360,1.0,7.0,99,0.00,,,0.00,Weather View 32 v70,2013-07-11 04:02:00,
2013-07-11 00:07:00,69.8,69.5,28.19,North,360,0.0,7.0,99,0.00,,,0.00,Weather View 32 v70,2013-07-11 04:07:00,
2013-07-11 00:12:00,69.5,69.2,28.18,North,360,0.0,7.0,99,0.00,,,0.00,Weather View 32 v70,2013-07-11 04:12:00,
2013-07-11 00:17:00,69.3,69.0,28.18,North,360,0.0,7.0,99,0.00,,,0.00,Weather View 32 v70,2013-07-11 04:17:00,
2013-07-11 00:22:00,69.3,69.0,28.18,North,360,0.0,7.0,99,0.00,,,0.00,Weather View 32 v70,2013-07-11 04:22:00,
2013-07-11 00:27:00,69.3,69.0,28.18,North,360,0.0,6.0,99,0.00,,,0.00,Weather View 32 v70,2013-07-11 04:27:00,
2013-07-11 00:32:00,69.3,69.0,28.17,North,360,0.0,4.0,99,0.00,,,0.00,Weather View 32 v70,2013-07-11 04:32:00,
2013-07-11 00:37:00,69.3,69.0,28.17,North,360,0.0,3.0,99,0.00,,,0.00,Weather View 32 v70,2013-07-11 04:37:00,
2013-07-11 00:42:00,69.3,69.0,28.17,North,360,0.0,2.0,99,0.00,,,0.00,Weather View 32 v70,2013-07-11 04:42:00,
2013-07-11 00:47:00,69.3,69.0,28.17,West,270,2.0,2.0,99,0.00,,,0.00,Weather View 32 v70,2013-07-11 04:47:00,
2013-07-11 00:52:00,69.1,68.8,28.17,West,270,2.0,2.0,99,0.00,,,0.00,Weather View 32 v70,2013-07-11 04:52:00,
2013-07-11 00:57:00,68.9,68.6,28.17,SW,225,2.0,2.0,99,0.00,,,0.00,Weather View 32 v70,2013-07-11 04:57:00,
2013-07-11 01:02:00,68.9,68.6,28.17,South,180,2.0,4.0,99,0.00,,,0.00,Weather View 32 v70,2013-07-11 05:02:00,
2013-07-11 01:07:00,69.0,68.7,28.17,SSW,202,3.0,5.0,99,0.00,,,0.00,Weather View 32 v70,2013-07-11 05:07:00,
2013-07-11 01:12:00,69.2,68.9,28.17,SSW,202,3.0,5.0,99,0.00,,,0.00,Weather View 32 v70,2013-07-11 05:12:00,
2013-07-11 01:17:00,69.3,69.0,28.17,SSW,202,4.0,5.0,99,0.00,,,0.00,Weather View 32 v70,2013-07-11 05:17:00,
2013-07-11 01:22:00,69.5,69.2,28.17,SW,225,4.0,5.0,99,0.00,,,0.00,Weather View 32 v70,2013-07-11 05:22:00,
2013-07-11 01:27:00,69.6,69.3,28.17,SW,225,2.0,5.0,99,0.00,,,0.00,Weather View 32 v70,2013-07-11 05:27:00,
2013-07-11 01:32:00,69.6,69.3,28.17,SW,225,1.0,5.0,99,0.00,,,0.00,Weather View 32 v70,2013-07-11 05:32:00,
2013-07-11 01:37:00,69.6,69.3,28.17,SW,225,1.0,5.0,99,0.00,,,0.00,Weather View 32 v70,2013-07-11 05:37:00,
2013-07-11 01:42:00,69.6,69.3,28.17,SW,225,1.0,5.0,99,0.00,,,0.00,Weather View 32 v70,2013-07-11 05:42:00,
2013-07-11 01:47:00,69.5,69.2,28.16,SW,225,1.0,5.0,99,0.00,,,0.00,Weather View 32 v70,2013-07-11 05:47:00,
2013-07-11 01:52:00,69.5,69.2,28.16,SSW,202,3.0,5.0,99,0.00,,,0.00,Weather View 32 v70,2013-07-11 05:52:00,
2013-07-11 01:57:00,69.4,69.1,28.16,SSW,202,2.0,5.0,99,0.00,,,0.00,Weather View 32 v70,2013-07-11 05:57:00,
2013-07-11 02:02:00,69.5,69.2,28.16,SW,225,2.0,5.0,99,0.00,,,0.00,Weather View 32 v70,2013-07-11 06:02:00,
2013-07-11 02:07:00,69.5,69.2,28.16,SSW,202,2.0,5.0,99,0.00,,,0.00,Weather View 32 v70,2013-07-11 06:07:00,
2013-07-11 02:12:00,69.5,69.2,28.16,South,180,2.0,5.0,99,0.00,,,0.00,Weather View 32 v70,2013-07-11 06:12:00,
2013-07-11 02:17:00,69.6,69.3,28.16,South,180,4.0,5.0,99,0.00,,,0.00,Weather View 32 v70,2013-07-11 06:17:00,
2013-07-11 02:22:00,69.7,69.4,28.15,SW,225,3.0,5.0,99,0.00,,,0.00,Weather View 32 v70,2013-07-11 06:22:00,
2013-07-11 02:27:00,69.6,69.3,28.15,SW,225,1.0,5.0,99,0.00,,,0.00,Weather View 32 v70,2013-07-11 06:27:00,
2013-07-11 02:32:00,69.6,69.3,28.16,WSW,247,1.0,5.0,99,0.00,,,0.00,Weather View 32 v70,2013-07-11 06:32:00,
2013-07-11 02:37:00,69.4,69.1,28.16,West,270,2.0,5.0,99,0.00,,,0.00,Weather View 32 v70,2013-07-11 06:37:00,
2013-07-11 02:42:00,69.2,68.9,28.16,West,270,0.0,5.0,99,0.00,,,0.00,Weather View 32 v70,2013-07-11 06:42:00,
2013-07-11 02:47:00,68.9,68.6,28.16,West,270,0.0,5.0,99,0.00,,,0.00,Weather View 32 v70,2013-07-11 06:47:00,
2013-07-11 02:52:00,68.7,68.4,28.16,West,270,0.0,5.0,99,0.00,,,0.00,Weather View 32 v70,2013-07-11 06:52:00,
2013-07-11 02:57:00,68.7,68.4,28.16,West,270,0.0,5.0,99,0.00,,,0.00,Weather View 32 v70,2013-07-11 06:57:00,
2013-07-11 03:02:00,68.7,68.4,28.16,West,270,0.0,5.0,99,0.00,,,0.00,Weather View 32 v70,2013-07-11 07:02:00,
2013-07-11 03:07:00,68.6,68.3,28.15,North,360,2.0,5.0,99,0.00,,,0.00,Weather View 32 v70,2013-07-11 07:07:00,
2013-07-11 03:12:00,68.5,68.2,28.16,North,360,1.0,5.0,99,0.00,,,0.00,Weather View 32 v70,2013-07-11 07:12:00,
2013-07-11 03:17:00,68.4,68.1,28.16,North,360,0.0,4.0,99,0.00,,,0.00,Weather View 32 v70,2013-07-11 07:17:00,
2013-07-11 03:22:00,68.5,68.2,28.16,North,360,0.0,4.0,99,0.00,,,0.00,Weather View 32 v70,2013-07-11 07:22:00,
2013-07-11 03:27:00,68.4,68.1,28.16,North,360,0.0,4.0,99,0.00,,,0.00,Weather View 32 v70,2013-07-11 07:27:00,
2013-07-11 03:32:00,68.4,68.1,28.16,North,360,0.0,4.0,99,0.00,,,0.00,Weather View 32 v70,2013-07-11 07:32:00,
2013-07-11 03:37:00,68.4,68.1,28.16,North,360,0.0,4.0,99,0.00,,,0.00,Weather View 32 v70,2013-07-11 07:37:00,
2013-07-11 03:42:00,68.5,68.2,28.16,NW,315,2.0,4.0,99,0.00,,,0.00,Weather View 32 v70,2013-07-11 07:42:00,
2013-07-11 03:47:00,68.5,68.2,28.16,West,270,2.0,5.0,99,0.00,,,0.00,Weather View 32 v70,2013-07-11 07:47:00,
2013-07-11 03:52:00,68.4,68.1,28.16,WSW,247,0.0,5.0,99,0.00,,,0.00,Weather View 32 v70,2013-07-11 07:52:00,
2013-07-11 03:57:00,68.3,68.0,28.16,WSW,247,0.0,5.0,99,0.00,,,0.00,Weather View 32 v70,2013-07-11 07:57:00,
2013-07-11 04:02:00,68.4,68.1,28.16,South,180,1.0,5.0,99,0.00,,,0.00,Weather View 32 v70,2013-07-11 08:02:00,
2013-07-11 04:07:00,68.4,68.1,28.16,South,180,0.0,5.0,99,0.00,,,0.00,Weather View 32 v70,2013-07-11 08:07:00,
2013-07-11 04:12:00,68.3,68.0,28.15,South,180,0.0,5.0,99,0.00,,,0.00,Weather View 32 v70,2013-07-11 08:12:00,
2013-07-11 04:17:00,68.3,68.0,28.15,South,180,0.0,5.0,99,0.00,,,0.00,Weather View 32 v70,2013-07-11 08:17:00,
2013-07-11 04:23:00,68.2,67.9,28.15,South,180,0.0,5.0,99,0.00,,,0.00,Weather View 32 v70,2013-07-11 08:23:00,
2013-07-11 04:28:00,68.3,68.0,28.15,South,180,0.0,5.0,99,0.00,,,0.00,Weather View 32 v70,2013-07-11 08:28:00,
2013-07-11 04:33:00,68.3,68.0,28.15,South,180,1.0,5.0,99,0.00,,,0.00,Weather View 32 v70,2013-07-11 08:33:00,
2013-07-11 04:38:00,68.4,68.1,28.15,SW,225,1.0,5.0,99,0.00,,,0.00,Weather View 32 v70,2013-07-11 08:38:00,
2013-07-11 04:43:00,68.3,68.0,28.15,WSW,247,0.0,5.0,99,0.00,,,0.00,Weather View 32 v70,2013-07-11 08:43:00,
2013-07-11 04:48:00,68.2,67.9,28.16,WSW,247,0.0,3.0,99,0.00,,,0.00,Weather View 32 v70,2013-07-11 08:48:00,
2013-07-11 04:53:00,68.1,67.8,28.15,WSW,247,0.0,2.0,99,0.00,,,0.00,Weather View 32 v70,2013-07-11 08:53:00,
2013-07-11 04:58:00,68.0,67.7,28.15,WSW,247,0.0,2.0,99,0.00,,,0.00,Weather View 32 v70,2013-07-11 08:58:00,
2013-07-11 05:03:00,68.0,67.7,28.15,NW,315,0.0,2.0,99,0.00,,,0.00,Weather View 32 v70,2013-07-11 09:03:00,
2013-07-11 05:08:00,67.9,67.6,28.15,NW,315,0.0,2.0,99,0.00,,,0.00,Weather View 32 v70,2013-07-11 09:08:00,
2013-07-11 05:13:00,67.9,67.6,28.15,NW,315,0.0,2.0,99,0.00,,,0.00,Weather View 32 v70,2013-07-11 09:13:00,
2013-07-11 05:18:00,67.9,67.6,28.15,NW,315,0.0,2.0,99,0.00,,,0.00,Weather View 32 v70,2013-07-11 09:18:00,
2013-07-11 05:23:00,67.9,67.6,28.16,NW,315,0.0,2.0,99,0.00,,,0.00,Weather View 32 v70,2013-07-11 09:23:00,
2013-07-11 05:28:00,68.1,67.8,28.16,NW,315,0.0,2.0,99,0.00,,,0.00,Weather View 32 v70,2013-07-11 09:28:00,
2013-07-11 05:33:00,68.1,67.8,28.15,South,180,2.0,2.0,99,0.00,,,0.00,Weather View 32 v70,2013-07-11 09:33:00,
2013-07-11 05:38:00,68.4,68.1,28.16,SE,135,1.0,4.0,99,0.00,,,0.00,Weather View 32 v70,2013-07-11 09:38:00,
2013-07-11 05:43:00,68.4,68.1,28.16,SE,135,0.0,4.0,99,0.00,,,0.00,Weather View 32 v70,2013-07-11 09:43:00,
2013-07-11 05:48:00,68.4,68.1,28.16,East,90,1.0,4.0,99,0.00,,,0.00,Weather View 32 v70,2013-07-11 09:48:00,
2013-07-11 05:53:00,68.3,68.0,28.16,West,270,1.0,4.0,99,0.00,,,0.00,Weather View 32 v70,2013-07-11 09:53:00,
2013-07-11 05:58:00,68.2,67.9,28.16,NW,315,0.0,4.0,99,0.00,,,0.00,Weather View 32 v70,2013-07-11 09:58:00,
2013-07-11 06:03:00,68.1,67.8,28.16,SW,225,2.0,4.0,99,0.00,,,0.00,Weather View 32 v70,2013-07-11 10:03:00,
2013-07-11 06:08:00,68.2,67.9,28.16,North,360,2.0,4.0,99,0.00,,,0.00,Weather View 32 v70,2013-07-11 10:08:00,
2013-07-11 06:13:00,68.0,67.7,28.16,North,360,1.0,4.0,99,0.00,,,0.00,Weather View 32 v70,2013-07-11 10:13:00,
2013-07-11 06:18:00,67.9,67.6,28.17,North,360,0.0,4.0,99,0.00,,,0.00,Weather View 32 v70,2013-07-11 10:18:00,
2013-07-11 06:23:00,67.9,67.6,28.17,North,360,1.0,4.0,99,0.00,,,0.00,Weather View 32 v70,2013-07-11 10:23:00,
2013-07-11 06:28:00,67.9,67.6,28.17,North,360,0.0,4.0,99,0.00,,,0.00,Weather View 32 v70,2013-07-11 10:28:00,
2013-07-11 06:33:00,67.9,67.6,28.17,North,360,0.0,4.0,99,0.00,,,0.00,Weather View 32 v70,2013-07-11 10:33:00,
2013-07-11 06:38:00,67.9,67.6,28.17,North,360,1.0,3.0,99,0.00,,,0.00,Weather View 32 v70,2013-07-11 10:38:00,
2013-07-11 06:43:00,68.1,67.8,28.18,North,360,0.0,3.0,99,0.00,,,0.00,Weather View 32 v70,2013-07-11 10:43:00,
2013-07-11 06:48:00,68.1,67.8,28.18,North,360,2.0,2.0,99,0.00,,,0.00,Weather View 32 v70,2013-07-11 10:48:00,
2013-07-11 06:53:00,68.2,67.9,28.18,North,360,0.0,2.0,99,0.00,,,0.00,Weather View 32 v70,2013-07-11 10:53:00,
2013-07-11 06:58:00,68.2,67.9,28.18,North,360,0.0,2.0,99,0.00,,,0.00,Weather View 32 v70,2013-07-11 10:58:00,
2013-07-11 07:03:00,68.3,68.0,28.18,North,360,1.0,2.0,99,0.00,,,0.00,Weather View 32 v70,2013-07-11 11:03:00,
2013-07-11 07:09:00,68.5,68.2,28.18,North,360,2.0,2.0,99,0.00,,,0.00,Weather View 32 v70,2013-07-11 11:09:00,
2013-07-11 07:14:00,68.6,68.3,28.18,North,360,0.0,2.0,99,0.00,,,0.00,Weather View 32 v70,2013-07-11 11:14:00,
2013-07-11 07:19:00,68.7,68.4,28.19,North,360,1.0,2.0,99,0.00,,,0.00,Weather View 32 v70,2013-07-11 11:19:00,
2013-07-11 07:24:00,68.9,68.6,28.19,North,360,2.0,2.0,99,0.00,,,0.00,Weather View 32 v70,2013-07-11 11:24:00,
2013-07-11 07:29:00,68.9,68.6,28.19,North,360,2.0,2.0,99,0.00,,,0.00,Weather View 32 v70,2013-07-11 11:29:00,
2013-07-11 07:34:00,69.1,68.8,28.19,North,360,0.0,2.0,99,0.00,,,0.00,Weather View 32 v70,2013-07-11 11:34:00,
2013-07-11 07:39:00,69.3,69.0,28.20,North,360,0.0,2.0,99,0.00,,,0.00,Weather View 32 v70,2013-07-11 11:39:00,
2013-07-11 07:44:00,69.7,69.4,28.20,North,360,2.0,2.0,99,0.00,,,0.00,Weather View 32 v70,2013-07-11 11:44:00,
2013-07-11 07:49:00,69.9,69.6,28.20,North,360,2.0,2.0,99,0.00,,,0.00,Weather View 32 v70,2013-07-11 11:49:00,
2013-07-11 07:54:00,70.4,70.1,28.19,North,360,0.0,3.0,99,0.00,,,0.00,Weather View 32 v70,2013-07-11 11:54:00,
2013-07-11 07:59:00,70.8,70.5,28.20,North,360,1.0,3.0,99,0.00,,,0.00,Weather View 32 v70,2013-07-11 11:59:00,
2013-07-11 08:04:00,71.2,70.9,28.20,North,360,2.0,3.0,99,0.00,,,0.00,Weather View 32 v70,2013-07-11 12:04:00,
2013-07-11 08:09:00,71.9,71.6,28.20,North,360,1.0,3.0,99,0.00,,,0.00,Weather View 32 v70,2013-07-11 12:09:00,
2013-07-11 08:14:00,73.1,72.2,28.20,North,360,3.0,4.0,97,0.00,,,0.00,Weather View 32 v70,2013-07-11 12:14:00,
2013-07-11 08:19:00,74.3,73.4,28.20,East,90,2.0,4.0,97,0.00,,,0.00,Weather View 32 v70,2013-07-11 12:19:00,
2013-07-11 08:24:00,75.6,75.0,28.20,NE,45,2.0,4.0,98,0.00,,,0.00,Weather View 32 v70,2013-07-11 12:24:00,
2013-07-11 08:29:00,76.5,76.2,28.20,ESE,112,1.0,4.0,99,0.00,,,0.00,Weather View 32 v70,2013-07-11 12:29:00,
2013-07-11 08:34:00,77.0,76.7,28.20,East,90,2.0,4.0,99,0.00,,,0.00,Weather View 32 v70,2013-07-11 12:34:00,
2013-07-11 08:39:00,76.9,75.0,28.20,SE,135,0.0,4.0,94,0.00,,,0.00,Weather View 32 v70,2013-07-11 12:39:00,
2013-07-11 08:44:00,76.3,71.8,28.21,ESE,112,1.0,5.0,86,0.00,,,0.00,Weather View 32 v70,2013-07-11 12:44:00,
2013-07-11 08:49:00,76.4,74.9,28.20,ESE,112,0.0,5.0,95,0.00,,,0.00,Weather View 32 v70,2013-07-11 12:49:00,
2013-07-11 08:54:00,76.9,71.0,28.20,North,360,2.0,5.0,82,0.00,,,0.00,Weather View 32 v70,2013-07-11 12:54:00,
2013-07-11 08:59:00,78.0,69.4,28.21,NE,45,1.0,5.0,75,0.00,,,0.00,Weather View 32 v70,2013-07-11 12:59:00,
2013-07-11 09:04:00,77.9,67.3,28.21,North,360,5.0,10.0,70,0.00,,,0.00,Weather View 32 v70,2013-07-11 13:04:00,
2013-07-11 09:09:00,77.2,68.6,28.21,North,360,6.0,10.0,75,0.00,,,0.00,Weather View 32 v70,2013-07-11 13:09:00,
2013-07-11 09:15:00,77.5,69.7,28.21,North,360,1.0,10.0,77,0.00,,,0.00,Weather View 32 v70,2013-07-11 13:15:00,
2013-07-11 09:20:00,77.7,69.9,28.21,NNE,22,1.0,10.0,77,0.00,,,0.00,Weather View 32 v70,2013-07-11 13:20:00,
2013-07-11 09:25:00,77.6,67.4,28.21,NE,45,2.0,10.0,71,0.00,,,0.00,Weather View 32 v70,2013-07-11 13:25:00,
2013-07-11 09:30:00,77.6,67.4,28.20,North,360,4.0,10.0,71,0.00,,,0.00,Weather View 32 v70,2013-07-11 13:30:00,
2013-07-11 09:35:00,77.8,67.6,28.20,NE,45,2.0,10.0,71,0.00,,,0.00,Weather View 32 v70,2013-07-11 13:35:00,
2013-07-11 09:40:00,77.4,66.4,28.20,NE,45,1.0,10.0,69,0.00,,,0.00,Weather View 32 v70,2013-07-11 13:40:00,
2013-07-11 09:45:00,77.3,66.3,28.21,North,360,5.0,10.0,69,0.00,,,0.00,Weather View 32 v70,2013-07-11 13:45:00,
2013-07-11 09:51:00,77.3,66.7,28.21,North,360,4.0,10.0,70,0.00,,,0.00,Weather View 32 v70,2013-07-11 13:51:00,
2013-07-11 09:56:00,77.0,67.2,28.21,North,360,6.0,10.0,72,0.00,,,0.00,Weather View 32 v70,2013-07-11 13:56:00,
2013-07-11 10:01:00,77.1,66.9,28.21,North,360,4.0,10.0,71,0.00,,,0.00,Weather View 32 v70,2013-07-11 14:01:00,
2013-07-11 10:06:00,77.3,67.5,28.21,North,360,4.0,9.0,72,0.00,,,0.00,Weather View 32 v70,2013-07-11 14:06:00,
2013-07-11 10:12:00,77.3,67.5,28.21,NE,45,2.0,9.0,72,0.00,,,0.00,Weather View 32 v70,2013-07-11 14:12:00,
2013-07-11 10:17:00,77.6,67.8,28.21,North,360,2.0,9.0,72,0.00,,,0.00,Weather View 32 v70,2013-07-11 14:17:00,
2013-07-11 10:22:00,77.9,68.1,28.21,NNE,22,0.0,9.0,72,0.00,,,0.00,Weather View 32 v70,2013-07-11 14:22:00,
2013-07-11 10:28:00,78.9,68.2,28.21,North,360,2.0,9.0,70,0.00,,,0.00,Weather View 32 v70,2013-07-11 14:28:00,
2013-07-11 10:33:00,79.5,66.2,28.21,North,360,3.0,8.0,64,0.00,,,0.00,Weather View 32 v70,2013-07-11 14:33:00,
2013-07-11 10:38:00,79.8,67.4,28.21,NNW,337,2.0,7.0,66,0.00,,,0.00,Weather View 32 v70,2013-07-11 14:38:00,
2013-07-11 10:44:00,80.2,69.9,28.22,SW,225,0.0,7.0,71,0.00,,,0.00,Weather View 32 v70,2013-07-11 14:44:00,
2013-07-11 10:49:00,80.9,68.4,28.22,North,360,0.0,7.0,66,0.00,,,0.00,Weather View 32 v70,2013-07-11 14:49:00,
2013-07-11 10:54:00,81.7,68.7,28.22,NE,45,1.0,7.0,65,0.00,,,0.00,Weather View 32 v70,2013-07-11 14:54:00,
2013-07-11 10:59:00,81.7,68.7,28.22,ESE,112,2.0,7.0,65,0.00,,,0.00,Weather View 32 v70,2013-07-11 14:59:00,
2013-07-11 11:04:00,81.4,71.1,28.22,North,360,1.0,7.0,71,0.00,,,0.00,Weather View 32 v70,2013-07-11 15:04:00,
2013-07-11 11:09:00,80.6,67.7,28.22,SE,135,3.0,7.0,65,0.00,,,0.00,Weather View 32 v70,2013-07-11 15:09:00,
2013-07-11 11:14:00,79.9,70.0,28.22,SE,135,1.0,7.0,72,0.00,,,0.00,Weather View 32 v70,2013-07-11 15:14:00,
2013-07-11 11:20:00,79.4,68.7,28.22,SE,135,2.0,7.0,70,0.00,,,0.00,Weather View 32 v70,2013-07-11 15:20:00,
2013-07-11 11:25:00,79.3,68.2,28.22,NNE,22,2.0,7.0,69,0.00,,,0.00,Weather View 32 v70,2013-07-11 15:25:00,
2013-07-11 11:31:00,79.6,67.6,28.22,NE,45,1.0,7.0,67,0.00,,,0.00,Weather View 32 v70,2013-07-11 15:31:00,
2013-07-11 11:36:00,80.3,69.6,28.22,SE,135,1.0,7.0,70,0.00,,,0.00,Weather View 32 v70,2013-07-11 15:36:00,
2013-07-11 11:41:00,80.5,70.2,28.22,NE,45,0.0,7.0,71,0.00,,,0.00,Weather View 32 v70,2013-07-11 15:41:00,
2013-07-11 11:46:00,79.9,67.0,28.22,SE,135,1.0,7.0,65,0.00,,,0.00,Weather View 32 v70,2013-07-11 15:46:00,
2013-07-11 11:51:00,79.9,68.3,28.22,NE,45,1.0,7.0,68,0.00,,,0.00,Weather View 32 v70,2013-07-11 15:51:00,
2013-07-11 11:56:00,80.8,72.1,28.22,East,90,3.0,7.0,75,0.00,,,0.00,Weather View 32 v70,2013-07-11 15:56:00,
2013-07-11 12:01:00,80.9,70.2,28.22,ESE,112,0.0,7.0,70,0.00,,,0.00,Weather View 32 v70,2013-07-11 16:01:00,
2013-07-11 12:07:00,80.6,70.3,28.22,SE,135,0.0,7.0,71,0.00,,,0.00,Weather View 32 v70,2013-07-11 16:07:00,
2013-07-11 12:12:00,80.8,70.5,28.22,North,360,2.0,7.0,71,0.00,,,0.00,Weather View 32 v70,2013-07-11 16:12:00,
2013-07-11 12:17:00,81.3,71.4,28.22,NW,315,1.0,7.0,72,0.00,,,0.00,Weather View 32 v70,2013-07-11 16:17:00,
2013-07-11 12:22:00,81.6,70.0,28.22,NE,45,1.0,7.0,68,0.00,,,0.00,Weather View 32 v70,2013-07-11 16:22:00,
2013-07-11 12:27:00,82.1,69.1,28.22,NE,45,1.0,7.0,65,0.00,,,0.00,Weather View 32 v70,2013-07-11 16:27:00,
2013-07-11 12:32:00,82.1,69.1,28.22,NE,45,1.0,7.0,65,0.00,,,0.00,Weather View 32 v70,2013-07-11 16:32:00,
2013-07-11 12:37:00,81.9,71.5,28.22,North,360,0.0,7.0,71,0.00,,,0.00,Weather View 32 v70,2013-07-11 16:37:00,
2013-07-11 12:42:00,81.8,71.4,28.22,SE,135,0.0,7.0,71,0.00,,,0.00,Weather View 32 v70,2013-07-11 16:42:00,
2013-07-11 12:48:00,81.2,68.7,28.22,NNE,22,3.0,7.0,66,0.00,,,0.00,Weather View 32 v70,2013-07-11 16:48:00,
2013-07-11 12:53:00,81.5,70.3,28.22,NE,45,0.0,7.0,69,0.00,,,0.00,Weather View 32 v70,2013-07-11 16:53:00,
2013-07-11 12:58:00,81.8,68.8,28.22,ESE,112,0.0,7.0,65,0.00,,,0.00,Weather View 32 v70,2013-07-11 16:58:00,
2013-07-11 13:03:00,81.9,71.1,28.22,East,90,0.0,7.0,70,0.00,,,0.00,Weather View 32 v70,2013-07-11 17:03:00,
2013-07-11 13:08:00,81.6,70.8,28.22,East,90,0.0,7.0,70,0.00,,,0.00,Weather View 32 v70,2013-07-11 17:08:00,
2013-07-11 13:13:00,82.4,73.2,28.22,East,90,0.0,7.0,74,0.00,,,0.00,Weather View 32 v70,2013-07-11 17:13:00,
2013-07-11 13:18:00,82.9,69.9,28.22,East,90,2.0,7.0,65,0.00,,,0.00,Weather View 32 v70,2013-07-11 17:18:00,
2013-07-11 13:23:00,82.6,70.0,28.22,NE,45,0.0,7.0,66,0.00,,,0.00,Weather View 32 v70,2013-07-11 17:23:00,
2013-07-11 13:28:00,82.4,69.4,28.22,North,360,2.0,7.0,65,0.00,,,0.00,Weather View 32 v70,2013-07-11 17:28:00,
2013-07-11 13:34:00,82.9,71.6,28.22,ESE,112,0.0,7.0,69,0.00,,,0.00,Weather View 32 v70,2013-07-11 17:34:00,
2013-07-11 13:39:00,82.9,70.3,28.22,SE,135,1.0,7.0,66,0.00,,,0.00,Weather View 32 v70,2013-07-11 17:39:00,
2013-07-11 13:44:00,82.9,71.6,28.22,SE,135,0.0,7.0,69,0.00,,,0.00,Weather View 32 v70,2013-07-11 17:44:00,
2013-07-11 13:49:00,82.1,69.6,28.21,East,90,2.0,6.0,66,0.00,,,0.00,Weather View 32 v70,2013-07-11 17:49:00,
2013-07-11 13:55:00,82.7,70.1,28.21,North,360,2.0,6.0,66,0.00,,,0.00,Weather View 32 v70,2013-07-11 17:55:00,
2013-07-11 14:00:00,83.2,71.1,28.21,North,360,0.0,7.0,67,0.00,,,0.00,Weather View 32 v70,2013-07-11 18:00:00,
2013-07-11 14:05:00,82.4,70.7,28.21,ENE,67,1.0,7.0,68,0.00,,,0.00,Weather View 32 v70,2013-07-11 18:05:00,
2013-07-11 14:11:00,82.0,70.8,28.21,North,360,0.0,7.0,69,0.00,,,0.00,Weather View 32 v70,2013-07-11 18:11:00,
2013-07-11 14:16:00,81.9,69.4,28.20,NNW,337,6.0,7.0,66,0.00,,,0.00,Weather View 32 v70,2013-07-11 18:16:00,
2013-07-11 14:21:00,81.6,69.5,28.20,NE,45,1.0,7.0,67,0.00,,,0.00,Weather View 32 v70,2013-07-11 18:21:00,
2013-07-11 14:26:00,81.2,70.0,28.20,NW,315,0.0,7.0,69,0.00,,,0.00,Weather View 32 v70,2013-07-11 18:26:00,
2013-07-11 14:31:00,80.7,68.7,28.20,East,90,0.0,7.0,67,0.00,,,0.00,Weather View 32 v70,2013-07-11 18:31:00,
2013-07-11 14:36:00,80.6,71.9,28.20,East,90,2.0,7.0,75,0.00,,,0.00,Weather View 32 v70,2013-07-11 18:36:00,
2013-07-11 14:41:00,80.8,70.5,28.20,North,360,0.0,7.0,71,0.00,,,0.00,Weather View 32 v70,2013-07-11 18:41:00,
2013-07-11 14:47:00,82.0,72.4,28.20,ESE,112,0.0,7.0,73,0.00,,,0.00,Weather View 32 v70,2013-07-11 18:47:00,
2013-07-11 14:52:00,82.1,68.7,28.20,SE,135,1.0,7.0,64,0.00,,,0.00,Weather View 32 v70,2013-07-11 18:52:00,
2013-07-11 14:57:00,81.6,69.5,28.20,ESE,112,0.0,7.0,67,0.00,,,0.00,Weather View 32 v70,2013-07-11 18:57:00,
2013-07-11 15:02:00,81.7,68.7,28.19,North,360,3.0,6.0,65,0.00,,,0.00,Weather View 32 v70,2013-07-11 19:02:00,
2013-07-11 15:08:00,82.2,69.2,28.19,North,360,1.0,6.0,65,0.00,,,0.00,Weather View 32 v70,2013-07-11 19:08:00,
2013-07-11 15:13:00,83.0,68.6,28.19,North,360,4.0,6.0,62,0.00,,,0.00,Weather View 32 v70,2013-07-11 19:13:00,
2013-07-11 15:18:00,82.8,68.9,28.19,NE,45,0.0,7.0,63,0.00,,,0.00,Weather View 32 v70,2013-07-11 19:18:00,
2013-07-11 15:23:00,82.9,70.8,28.19,North,360,2.0,7.0,67,0.00,,,0.00,Weather View 32 v70,2013-07-11 19:23:00,
2013-07-11 15:28:00,83.1,68.2,28.19,North,360,1.0,7.0,61,0.00,,,0.00,Weather View 32 v70,2013-07-11 19:28:00,
2013-07-11 15:34:00,82.8,68.4,28.19,North,360,4.0,7.0,62,0.00,,,0.00,Weather View 32 v70,2013-07-11 19:34:00,
2013-07-11 15:39:00,82.9,72.1,28.19,ENE,67,0.0,7.0,70,0.00,,,0.00,Weather View 32 v70,2013-07-11 19:39:00,
2013-07-11 15:44:00,82.3,68.4,28.18,NNE,22,1.0,7.0,63,0.00,,,0.00,Weather View 32 v70,2013-07-11 19:44:00,
2013-07-11 15:49:00,81.6,67.7,28.18,North,360,2.0,7.0,63,0.00,,,0.00,Weather View 32 v70,2013-07-11 19:49:00,
2013-07-11 15:54:00,81.3,69.7,28.18,NNE,22,1.0,7.0,68,0.00,,,0.00,Weather View 32 v70,2013-07-11 19:54:00,
2013-07-11 15:59:00,81.0,69.0,28.18,SE,135,2.0,7.0,67,0.00,,,0.00,Weather View 32 v70,2013-07-11 19:59:00,
2013-07-11 16:04:00,80.7,70.0,28.18,East,90,0.0,7.0,70,0.00,,,0.00,Weather View 32 v70,2013-07-11 20:04:00,
2013-07-11 16:09:00,80.6,70.3,28.18,SE,135,0.0,7.0,71,0.00,,,0.00,Weather View 32 v70,2013-07-11 20:09:00,
2013-07-11 16:14:00,80.8,69.2,28.18,North,360,1.0,7.0,68,0.00,,,0.00,Weather View 32 v70,2013-07-11 20:14:00,
2013-07-11 16:19:00,80.9,70.2,28.18,NNE,22,1.0,7.0,70,0.00,,,0.00,Weather View 32 v70,2013-07-11 20:19:00,
2013-07-11 16:24:00,80.8,69.6,28.18,SE,135,1.0,7.0,69,0.00,,,0.00,Weather View 32 v70,2013-07-11 20:24:00,
2013-07-11 16:29:00,80.4,68.8,28.18,North,360,0.0,7.0,68,0.00,,,0.00,Weather View 32 v70,2013-07-11 20:29:00,
2013-07-11 16:34:00,80.2,69.9,28.18,East,90,2.0,6.0,71,0.00,,,0.00,Weather View 32 v70,2013-07-11 20:34:00,
2013-07-11 16:40:00,80.1,69.4,28.18,ESE,112,0.0,4.0,70,0.00,,,0.00,Weather View 32 v70,2013-07-11 20:40:00,
2013-07-11 16:45:00,79.8,69.5,28.18,North,360,0.0,5.0,71,0.00,,,0.00,Weather View 32 v70,2013-07-11 20:45:00,
2013-07-11 16:50:00,79.6,69.3,28.18,NNE,22,2.0,5.0,71,0.00,,,0.00,Weather View 32 v70,2013-07-11 20:50:00,
2013-07-11 16:55:00,79.6,68.9,28.17,NE,45,0.0,5.0,70,0.00,,,0.00,Weather View 32 v70,2013-07-11 20:55:00,
2013-07-11 17:00:00,79.5,68.4,28.17,NE,45,2.0,5.0,69,0.00,,,0.00,Weather View 32 v70,2013-07-11 21:00:00,
2013-07-11 17:05:00,79.4,68.7,28.18,North,360,1.0,5.0,70,0.00,,,0.00,Weather View 32 v70,2013-07-11 21:05:00,
2013-07-11 17:10:00,78.9,67.8,28.18,North,360,4.0,5.0,69,0.00,,,0.00,Weather View 32 v70,2013-07-11 21:10:00,
2013-07-11 17:15:00,78.5,68.3,28.18,North,360,5.0,6.0,71,0.00,,,0.00,Weather View 32 v70,2013-07-11 21:15:00,
2013-07-11 17:21:00,77.9,68.5,28.17,North,360,6.0,7.0,73,0.00,,,0.00,Weather View 32 v70,2013-07-11 21:21:00,
2013-07-11 17:26:00,77.2,69.0,28.17,North,360,3.0,9.0,76,0.00,,,0.00,Weather View 32 v70,2013-07-11 21:26:00,
2013-07-11 17:31:00,76.7,68.1,28.17,North,360,4.0,9.0,75,0.00,,,0.00,Weather View 32 v70,2013-07-11 21:31:00,
2013-07-11 17:37:00,76.3,68.5,28.17,NNE,22,5.0,9.0,77,0.00,,,0.00,Weather View 32 v70,2013-07-11 21:37:00,
2013-07-11 17:42:00,75.8,68.4,28.17,NNE,22,2.0,9.0,78,0.00,,,0.00,Weather View 32 v70,2013-07-11 21:42:00,
2013-07-11 17:47:00,75.7,68.7,28.17,NNE,22,1.0,9.0,79,0.00,,,0.00,Weather View 32 v70,2013-07-11 21:47:00,
2013-07-11 17:52:00,75.5,69.2,28.17,North,360,1.0,9.0,81,0.00,,,0.00,Weather View 32 v70,2013-07-11 21:52:00,
2013-07-11 17:57:00,75.3,69.0,28.18,North,360,3.0,9.0,81,0.00,,,0.00,Weather View 32 v70,2013-07-11 21:57:00,
2013-07-11 18:02:00,75.1,69.6,28.18,North,360,3.0,9.0,83,0.00,,,0.00,Weather View 32 v70,2013-07-11 22:02:00,
2013-07-11 18:08:00,74.9,69.7,28.17,North,360,2.0,9.0,84,0.00,,,0.00,Weather View 32 v70,2013-07-11 22:08:00,
2013-07-11 18:13:00,74.8,69.3,28.17,North,360,0.0,9.0,83,0.00,,,0.00,Weather View 32 v70,2013-07-11 22:13:00,
2013-07-11 18:18:00,74.8,69.3,28.17,North,360,2.0,9.0,83,0.00,,,0.00,Weather View 32 v70,2013-07-11 22:18:00,
2013-07-11 18:24:00,74.8,69.3,28.17,North,360,1.0,8.0,83,0.00,,,0.00,Weather View 32 v70,2013-07-11 22:24:00,
2013-07-11 18:29:00,74.9,69.7,28.17,North,360,2.0,8.0,84,0.00,,,0.00,Weather View 32 v70,2013-07-11 22:29:00,
2013-07-11 18:34:00,74.8,69.6,28.18,North,360,2.0,8.0,84,0.00,,,0.00,Weather View 32 v70,2013-07-11 22:34:00,
2013-07-11 18:40:00,74.5,69.3,28.18,North,360,5.0,7.0,84,0.00,,,0.00,Weather View 32 v70,2013-07-11 22:40:00,
2013-07-11 18:45:00,74.2,69.0,28.18,North,360,2.0,7.0,84,0.00,,,0.00,Weather View 32 v70,2013-07-11 22:45:00,
2013-07-11 18:50:00,74.0,68.8,28.18,NNE,22,2.0,7.0,84,0.00,,,0.00,Weather View 32 v70,2013-07-11 22:50:00,
2013-07-11 18:55:00,73.9,69.1,28.18,North,360,5.0,7.0,85,0.00,,,0.00,Weather View 32 v70,2013-07-11 22:55:00,
2013-07-11 19:01:00,73.7,68.5,28.18,North,360,3.0,7.0,84,0.00,,,0.00,Weather View 32 v70,2013-07-11 23:01:00,
2013-07-11 19:06:00,73.6,68.8,28.18,North,360,4.0,7.0,85,0.00,,,0.00,Weather View 32 v70,2013-07-11 23:06:00,
2013-07-11 19:11:00,73.5,69.0,28.18,North,360,2.0,7.0,86,0.00,,,0.00,Weather View 32 v70,2013-07-11 23:11:00,
2013-07-11 19:16:00,73.4,68.9,28.18,NE,45,2.0,7.0,86,0.00,,,0.00,Weather View 32 v70,2013-07-11 23:16:00,
2013-07-11 19:21:00,73.3,68.8,28.18,NNE,22,2.0,7.0,86,0.00,,,0.00,Weather View 32 v70,2013-07-11 23:21:00,
2013-07-11 19:26:00,73.3,68.8,28.17,North,360,0.0,7.0,86,0.00,,,0.00,Weather View 32 v70,2013-07-11 23:26:00,
2013-07-11 19:31:00,73.1,69.0,28.17,North,360,0.0,7.0,87,0.00,,,0.00,Weather View 32 v70,2013-07-11 23:31:00,
2013-07-11 19:36:00,72.9,68.8,28.17,North,360,2.0,7.0,87,0.00,,,0.00,Weather View 32 v70,2013-07-11 23:36:00,
2013-07-11 19:42:00,72.8,69.0,28.17,NNE,22,0.0,6.0,88,0.00,,,0.00,Weather View 32 v70,2013-07-11 23:42:00,
2013-07-11 19:47:00,72.7,69.3,28.17,SSE,157,3.0,6.0,89,0.00,,,0.00,Weather View 32 v70,2013-07-11 23:47:00,
2013-07-11 19:52:00,72.5,70.0,28.18,SW,225,5.0,8.0,92,0.00,,,0.00,Weather View 32 v70,2013-07-11 23:52:00,
2013-07-11 19:57:00,71.6,70.1,28.18,SW,225,4.0,10.0,95,0.02,,,0.02,Weather View 32 v70,2013-07-11 23:57:00,
2013-07-11 20:02:00,70.7,70.1,28.18,SE,135,1.0,10.0,98,0.06,,,0.06,Weather View 32 v70,2013-07-12 00:02:00,
2013-07-11 20:07:00,70.3,70.0,28.18,SW,225,3.0,10.0,99,0.09,,,0.09,Weather View 32 v70,2013-07-12 00:07:00,
2013-07-11 20:13:00,70.1,69.8,28.18,SSW,202,4.0,10.0,99,0.12,,,0.12,Weather View 32 v70,2013-07-12 00:13:00,
2013-07-11 20:18:00,69.9,69.6,28.18,South,180,2.0,10.0,99,0.15,,,0.15,Weather View 32 v70,2013-07-12 00:18:00,
2013-07-11 20:23:00,69.8,69.5,28.18,South,180,4.0,10.0,99,0.18,,,0.18,Weather View 32 v70,2013-07-12 00:23:00,
2013-07-11 20:28:00,69.7,69.4,28.18,SW,225,5.0,10.0,99,0.20,,,0.20,Weather View 32 v70,2013-07-12 00:28:00,
2013-07-11 20:33:00,69.5,69.2,28.18,NW,315,4.0,10.0,99,0.23,,,0.23,Weather View 32 v70,2013-07-12 00:33:00,
2013-07-11 20:38:00,69.3,69.0,28.18,NW,315,2.0,10.0,99,0.25,,,0.26,Weather View 32 v70,2013-07-12 00:38:00,
2013-07-11 20:43:00,69.2,68.9,28.18,West,270,2.0,10.0,99,0.28,,,0.28,Weather View 32 v70,2013-07-12 00:43:00,
2013-07-11 20:48:00,69.1,68.8,28.18,SW,225,2.0,10.0,99,0.31,,,0.31,Weather View 32 v70,2013-07-12 00:48:00,
2013-07-11 20:54:00,69.0,68.7,28.18,SW,225,2.0,10.0,99,0.34,,,0.34,Weather View 32 v70,2013-07-12 00:54:00,
2013-07-11 20:59:00,68.9,68.6,28.18,NNE,22,5.0,7.0,99,-0.04,,,0.37,Weather View 32 v70,2013-07-12 00:59:00,
2013-07-11 21:04:00,69.0,68.7,28.17,North,360,2.0,7.0,99,-0.07,,,0.40,Weather View 32 v70,2013-07-12 01:04:00,
2013-07-11 21:09:00,68.9,68.6,28.16,North,360,2.0,6.0,99,0.32,,,0.42,Weather View 32 v70,2013-07-12 01:09:00,
2013-07-11 21:14:00,68.9,68.6,28.17,NNE,22,2.0,6.0,99,0.32,,,0.45,Weather View 32 v70,2013-07-12 01:14:00,
2013-07-11 21:19:00,68.9,68.6,28.17,North,360,2.0,6.0,99,0.32,,,0.47,Weather View 32 v70,2013-07-12 01:19:00,
2013-07-11 21:24:00,68.9,68.6,28.16,North,360,4.0,6.0,99,0.32,,,0.50,Weather View 32 v70,2013-07-12 01:24:00,
2013-07-11 21:29:00,68.9,68.6,28.16,North,360,2.0,6.0,99,0.32,,,0.52,Weather View 32 v70,2013-07-12 01:29:00,
2013-07-11 21:34:00,68.9,68.6,28.16,North,360,6.0,7.0,99,0.32,,,0.55,Weather View 32 v70,2013-07-12 01:34:00,
2013-07-11 21:39:00,68.7,68.4,28.17,North,360,9.0,11.0,99,0.31,,,0.57,Weather View 32 v70,2013-07-12 01:39:00,
2013-07-11 21:44:00,68.7,68.4,28.16,North,360,13.0,16.0,99,0.31,,,0.60,Weather View 32 v70,2013-07-12 01:44:00,
2013-07-11 21:49:00,68.3,68.0,28.17,North,360,17.0,19.0,99,0.32,,,0.63,Weather View 32 v70,2013-07-12 01:49:00,
2013-07-11 21:54:00,67.9,67.6,28.18,NNE,22,17.0,22.0,99,0.32,,,0.67,Weather View 32 v70,2013-07-12 01:54:00,
2013-07-11 21:59:00,67.4,67.1,28.18,North,360,11.0,22.0,99,0.33,,,0.70,Weather View 32 v70,2013-07-12 01:59:00,
2013-07-11 22:04:00,67.0,66.7,28.19,North,360,7.0,22.0,99,0.34,,,0.74,Weather View 32 v70,2013-07-12 02:04:00,
2013-07-11 22:09:00,66.8,66.5,28.18,North,360,3.0,22.0,99,0.36,,,0.78,Weather View 32 v70,2013-07-12 02:09:00,
2013-07-11 22:14:00,66.7,66.4,28.17,North,360,5.0,22.0,99,0.37,,,0.83,Weather View 32 v70,2013-07-12 02:14:00,
2013-07-11 22:20:00,66.8,66.5,28.18,WNW,292,2.0,22.0,99,0.39,,,0.87,Weather View 32 v70,2013-07-12 02:20:00,
2013-07-11 22:25:00,66.9,66.6,28.20,North,360,7.0,22.0,99,0.42,,,0.92,Weather View 32 v70,2013-07-12 02:25:00,
2013-07-11 22:30:00,67.2,66.9,28.19,North,360,8.0,22.0,99,0.44,,,0.97,Weather View 32 v70,2013-07-12 02:30:00,
2013-07-11 22:35:00,67.4,67.1,28.19,NNE,22,4.0,22.0,99,0.47,,,1.02,Weather View 32 v70,2013-07-12 02:35:00,
2013-07-11 22:40:00,67.3,67.0,28.19,NE,45,0.0,22.0,99,0.48,,,1.07,Weather View 32 v70,2013-07-12 02:40:00,
2013-07-11 22:45:00,67.3,67.0,28.20,East,90,0.0,22.0,99,0.50,,,1.11,Weather View 32 v70,2013-07-12 02:45:00,
2013-07-11 22:50:00,67.3,67.0,28.19,North,360,5.0,22.0,99,0.52,,,1.16,Weather View 32 v70,2013-07-12 02:50:00,
2013-07-11 22:55:00,67.1,66.8,28.19,NNE,22,1.0,17.0,99,0.54,,,1.21,Weather View 32 v70,2013-07-12 02:55:00,
2013-07-11 23:00:00,67.0,66.7,28.20,NNE,22,0.0,16.0,99,0.55,,,1.26,Weather View 32 v70,2013-07-12 03:00:00,
2013-07-11 23:05:00,66.7,66.4,28.20,NE,45,0.0,11.0,99,0.57,,,1.31,Weather View 32 v70,2013-07-12 03:05:00,
2013-07-11 23:11:00,66.3,66.0,28.20,SSE,157,0.0,11.0,99,0.58,,,1.36,Weather View 32 v70,2013-07-12 03:11:00,
2013-07-11 23:16:00,65.9,65.3,28.20,North,360,5.0,11.0,98,0.57,,,1.41,Weather View 32 v70,2013-07-12 03:16:00,
2013-07-11 23:21:00,65.6,65.0,28.19,North,360,7.0,11.0,98,0.58,,,1.47,Weather View 32 v70,2013-07-12 03:21:00,
2013-07-11 23:26:00,65.6,65.0,28.18,North,360,2.0,11.0,98,0.58,,,1.52,Weather View 32 v70,2013-07-12 03:26:00,
2013-07-11 23:31:00,65.5,64.9,28.20,SE,135,0.0,11.0,98,0.58,,,1.57,Weather View 32 v70,2013-07-12 03:31:00,
2013-07-11 23:36:00,65.6,65.0,28.21,SE,135,3.0,11.0,98,0.58,,,1.62,Weather View 32 v70,2013-07-12 03:36:00,
2013-07-11 23:41:00,65.6,65.0,28.21,East,90,0.0,11.0,98,0.59,,,1.66,Weather View 32 v70,2013-07-12 03:41:00,
2013-07-11 23:47:00,65.6,65.0,28.20,North,360,0.0,11.0,98,0.58,,,1.72,Weather View 32 v70,2013-07-12 03:47:00,
2013-07-11 23:52:00,65.6,65.0,28.20,North,360,0.0,11.0,98,0.58,,,1.76,Weather View 32 v70,2013-07-12 03:52:00,
2013-07-11 23:57:00,65.7,65.1,28.20,NNE,22,2.0,9.0,98,0.58,,,1.81,Weather View 32 v70,2013-07-12 03:57:00,